createdAt,value
2023-04-24T00:03:06.937Z,99276.28
2023-04-24T00:17:59.251Z,99275.63
2023-04-24T00:32:50.283Z,99286.44
2023-04-24T00:47:41.159Z,99291.92
2023-04-24T01:02:32.208Z,99281.11
2023-04-24T01:17:22.971Z,99275.22
2023-04-24T01:32:12.873Z,99272.14
2023-04-24T01:47:03.795Z,99269.84
2023-04-24T02:01:55.579Z,99255.18
2023-04-24T02:16:48.047Z,99251.63
2023-04-24T02:31:42.527Z,99264.50
2023-04-24T02:46:33.924Z,99283.69
2023-04-24T03:01:27.094Z,99304.96
2023-04-24T03:16:21.835Z,99318.77
2023-04-24T03:31:13.939Z,99345.53
2023-04-24T03:46:25.318Z,99355.86
2023-04-24T04:01:26.464Z,99384.11
2023-04-24T04:16:20.356Z,99406.04
2023-04-24T04:46:16.742Z,99448.48
2023-04-24T05:01:07.943Z,99457.45
2023-04-24T05:30:51.582Z,99496.39
2023-04-24T06:00:35.711Z,99527.56
2023-04-24T06:45:09.218Z,99560.31
2023-04-24T07:14:52.385Z,99577.11
2023-04-24T08:14:17.191Z,99649.66
2023-04-24T09:13:44.398Z,99717.52
2023-04-24T09:28:37.368Z,99729.94
2023-04-24T09:43:31.533Z,99752.91
2023-04-24T09:58:27.315Z,99743.91
2023-04-24T10:13:22.381Z,99751.98
2023-04-24T10:28:12.811Z,99783.72
2023-04-24T10:43:03.712Z,99805.86
2023-04-24T10:58:03.645Z,99801.27
2023-04-24T11:12:57.780Z,99820.22
2023-04-24T11:27:49.488Z,99847.16
2023-04-24T11:42:42.651Z,99841.44
2023-04-24T11:57:34.801Z,99849.31
2023-04-24T12:12:27.515Z,99844.15
2023-04-24T12:27:20.460Z,99853.08
2023-04-24T12:42:11.760Z,99835.71
2023-04-24T12:57:03.503Z,99841.80
2023-04-24T13:11:53.942Z,99832.89
2023-04-24T13:26:46.895Z,99827.22
2023-04-24T13:41:39.422Z,99822.18
2023-04-24T13:56:29.511Z,99818.78
2023-04-24T14:11:20.409Z,99814.65
2023-04-24T14:41:09.248Z,99800.70
2023-04-24T15:10:52.215Z,99813.84
2023-04-24T15:25:40.413Z,99807.75
2023-04-24T15:40:29.652Z,99801.45
2023-04-24T15:55:19.667Z,99791.93
2023-04-24T16:10:17.844Z,99794.20
2023-04-24T16:25:09.911Z,99803.63
2023-04-24T16:40:02.529Z,99819.33
2023-04-24T17:09:43.502Z,99824.91
2023-04-24T17:39:25.834Z,99831.83
2023-04-24T17:56:34.762Z,99829.02
2023-04-24T17:59:01.467Z,99833.63
2023-04-24T18:13:18.093Z,99821.26
2023-04-24T18:28:11.638Z,99836.50
2023-04-24T18:43:01.354Z,99859.18
2023-04-24T18:57:53.051Z,99864.39
2023-04-24T19:12:44.358Z,99885.72
2023-04-24T19:27:36.278Z,99908.92
2023-04-24T19:42:41.998Z,99914.86
2023-04-24T19:57:18.889Z,99900.46
2023-04-24T20:12:11.452Z,99909.80
2023-04-24T20:27:03.161Z,99901.55
2023-04-24T20:41:54.460Z,99892.63
2023-04-24T20:56:46.185Z,99881.95
2023-04-24T21:11:37.045Z,99860.58
2023-04-24T21:26:28.145Z,99848.18
2023-04-24T21:41:19.422Z,99842.20
2023-04-24T21:56:11.193Z,99837.12
2023-04-24T22:11:02.101Z,99849.14
2023-04-24T22:25:52.326Z,99840.09
2023-04-24T22:40:43.227Z,99835.38
2023-04-24T22:55:36.224Z,99837.75
2023-04-24T23:40:12.369Z,99813.48
